Time;durP1;ratioP1;P1;durP2;ratioP2;P2;SDS_P1;SDS_P2;PMS_P1;PMS_P2;Temp;Humidity;BMP_temperature;BMP_pressure;BME280_temperature;BME280_humidity;BME280_pressure;Samples;Min_cycle;Max_cycle;Signal;HPM_P1;HPM_P2
2024/01/16 00:00:22;;;;;;;15.60;6.88;;;2.00;99.90;;;2.09;80.11;99768.31;4996880;28;20073;-88
2024/01/16 00:02:49;;;;;;;15.27;7.25;;;2.10;99.90;;;2.02;79.86;99765.56;4997509;28;20058;-87
2024/01/16 00:05:17;;;;;;;13.65;6.90;;;2.10;99.90;;;2.05;79.87;99775.75;4990722;28;20035;-88
2024/01/16 00:07:47;;;;;;;15.75;7.28;;;2.00;99.90;;;2.01;79.85;99774.44;4977015;28;20078;-87
2024/01/16 00:10:18;;;;;;;14.98;7.15;;;2.00;99.90;;;2.09;79.69;99776.19;4976085;28;20051;-87
2024/01/16 00:12:49;;;;;;;21.13;7.55;;;2.10;99.90;;;2.00;79.44;99776.25;4976325;28;20050;-87
2024/01/16 00:15:21;;;;;;;14.23;6.82;;;2.00;99.90;;;2.07;79.81;99779.00;4977808;28;20498;-87
2024/01/16 00:17:49;;;;;;;14.73;6.70;;;2.00;99.90;;;2.11;79.34;99788.19;4977082;28;20046;-87
2024/01/16 00:20:18;;;;;;;14.40;7.13;;;2.10;99.90;;;2.09;79.48;99781.44;4960054;28;20133;-87
2024/01/16 00:22:49;;;;;;;11.43;6.47;;;2.00;99.90;;;2.12;79.38;99784.56;4959323;28;20051;-88
2024/01/16 00:25:17;;;;;;;14.95;6.28;;;2.10;99.90;;;2.18;79.35;99785.69;4960984;28;20043;-87
2024/01/16 00:27:45;;;;;;;17.63;7.53;;;2.10;99.90;;;2.14;79.02;99781.75;4966041;28;20043;-88
2024/01/16 00:30:15;;;;;;;12.18;6.13;;;2.10;99.90;;;2.18;79.16;99788.31;4977710;28;20070;-88
2024/01/16 00:32:47;;;;;;;11.47;6.57;;;2.10;99.90;;;2.18;78.77;99790.94;4978629;28;20050;-88
2024/01/16 00:35:15;;;;;;;16.92;6.63;;;2.10;99.90;;;2.16;78.95;99793.75;4976782;28;20050;-87
2024/01/16 00:37:46;;;;;;;19.50;6.65;;;2.10;99.90;;;2.18;79.07;99793.56;4981733;28;20069;-88
2024/01/16 00:40:14;;;;;;;14.38;6.45;;;2.10;99.90;;;2.21;79.10;99790.59;4980982;28;20069;-88
2024/01/16 00:42:48;;;;;;;16.38;6.60;;;2.10;99.90;;;2.07;78.28;99792.16;4996566;28;20043;-88
2024/01/16 00:45:19;;;;;;;12.27;6.03;;;2.10;99.90;;;1.96;78.81;99793.38;4993554;28;20057;-87
2024/01/16 00:47:48;;;;;;;15.98;6.63;;;2.00;99.90;;;2.05;78.86;99784.44;4976928;28;20098;-88
2024/01/16 00:50:17;;;;;;;13.15;6.20;;;2.00;99.90;;;2.11;78.92;99787.38;4961027;28;20047;-88
2024/01/16 00:52:44;;;;;;;17.38;6.40;;;2.00;99.90;;;2.11;78.32;99795.25;4989524;28;20078;-88
2024/01/16 00:55:14;;;;;;;14.88;5.90;;;2.00;99.90;;;2.00;78.39;99805.19;4998773;28;20468;-88
2024/01/16 00:57:42;;;;;;;17.83;5.95;;;2.00;99.90;;;1.98;78.46;99820.28;4980619;28;20051;-88
2024/01/16 01:00:13;;;;;;;10.75;6.47;;;2.00;99.90;;;2.05;78.46;99815.19;4961570;28;20657;-88
2024/01/16 01:02:40;;;;;;;10.00;5.60;;;2.00;99.90;;;2.14;78.65;99805.41;4958728;29;20479;-87
2024/01/16 01:05:13;;;;;;;16.63;5.75;;;2.10;99.90;;;2.19;78.53;99803.91;4973820;28;20052;-87
2024/01/16 01:07:43;;;;;;;15.25;5.88;;;2.10;99.90;;;2.19;77.82;99809.16;4998462;28;20050;-88
2024/01/16 01:10:11;;;;;;;14.55;5.93;;;2.10;99.90;;;2.22;78.01;99813.28;4987022;28;20414;-87
2024/01/16 01:12:39;;;;;;;13.00;5.35;;;2.30;99.90;;;2.20;78.08;99812.66;4977086;28;20078;-87
2024/01/16 01:15:11;;;;;;;11.18;5.38;;;2.10;99.90;;;2.21;77.64;99822.16;4955943;28;20118;-88
2024/01/16 01:17:42;;;;;;;15.00;5.20;;;2.10;99.90;;;2.18;78.04;99818.06;4966458;28;20061;-87
2024/01/16 01:20:15;;;;;;;13.63;5.35;;;2.10;99.90;;;2.20;78.25;99820.53;4994529;28;20050;-88
2024/01/16 01:22:45;;;;;;;12.48;4.78;;;2.10;99.90;;;2.16;77.75;99825.31;4987060;28;20042;-87
2024/01/16 01:25:13;;;;;;;11.48;4.78;;;2.10;99.90;;;2.17;78.04;99821.69;4996666;28;20481;-87
2024/01/16 01:27:47;;;;;;;11.63;4.80;;;2.10;99.90;;;2.19;78.02;99824.13;4996109;28;20133;-88
2024/01/16 01:30:15;;;;;;;12.10;4.80;;;2.10;99.90;;;2.11;77.98;99822.38;4996813;28;20473;-88
2024/01/16 01:32:43;;;;;;;17.75;5.13;;;2.10;99.90;;;2.08;77.75;99840.31;4988411;28;20066;-87
2024/01/16 01:35:19;;;;;;;16.45;6.10;;;2.10;99.90;;;2.02;78.19;99837.38;4978917;28;20526;-88
2024/01/16 01:37:52;;;;;;;11.27;4.93;;;2.00;99.90;;;1.92;78.02;99830.69;4986080;28;20046;-87
2024/01/16 01:40:22;;;;;;;12.80;5.00;;;2.00;99.90;;;1.96;78.28;99832.00;4995312;28;20113;-87
2024/01/16 01:42:50;;;;;;;9.82;4.80;;;1.90;99.90;;;1.94;78.48;99837.41;4982406;28;20053;-87
2024/01/16 01:45:18;;;;;;;11.02;5.28;;;2.00;99.90;;;1.95;78.63;99843.47;4994384;28;20042;-88
2024/01/16 01:47:50;;;;;;;12.20;5.35;;;2.00;99.90;;;1.98;78.78;99841.34;4999941;28;20497;-88
2024/01/16 01:50:19;;;;;;;11.80;4.90;;;2.00;99.90;;;2.05;78.83;99844.94;5000539;28;20050;-88
2024/01/16 01:52:49;;;;;;;11.73;5.05;;;2.00;99.90;;;2.05;78.32;99846.75;4999669;28;20053;-88
2024/01/16 01:55:17;;;;;;;18.33;5.72;;;2.00;99.90;;;2.06;78.54;99838.69;4983715;28;20096;-88
2024/01/16 01:57:47;;;;;;;19.48;6.30;;;2.00;99.90;;;1.93;78.78;99832.31;4999040;28;20081;-87
2024/01/16 02:00:18;;;;;;;12.90;5.45;;;2.00;99.90;;;2.02;78.77;99845.25;5001228;28;20078;-88
2024/01/16 02:02:47;;;;;;;14.18;6.00;;;2.00;99.90;;;2.05;78.71;99839.69;4999345;28;20046;-88
2024/01/16 02:05:17;;;;;;;15.32;6.10;;;2.00;99.90;;;1.95;78.95;99836.44;4999257;28;20133;-88
2024/01/16 02:07:48;;;;;;;13.13;6.20;;;2.00;99.90;;;2.05;78.77;99839.69;4999246;28;20081;-87
2024/01/16 02:10:16;;;;;;;13.73;6.50;;;2.00;99.90;;;2.12;78.99;99834.53;4995378;28;20047;-88
2024/01/16 02:12:44;;;;;;;17.45;6.38;;;2.10;99.90;;;2.13;78.53;99843.25;4980171;28;20050;-87
2024/01/16 02:15:17;;;;;;;15.50;6.28;;;2.10;99.90;;;2.05;78.48;99839.69;4963623;28;20047;-88
2024/01/16 02:17:45;;;;;;;13.73;7.60;;;2.00;99.90;;;2.12;78.63;99846.88;4980107;28;20141;-88
2024/01/16 02:20:15;;;;;;;15.05;7.30;;;2.10;99.90;;;2.06;78.79;99849.19;4980697;28;20075;-88
2024/01/16 02:22:55;;;;;;;16.45;7.95;;;2.00;99.90;;;2.09;78.37;99844.56;4985435;28;20050;-87
2024/01/16 02:25:26;;;;;;;13.70;7.78;;;2.10;99.90;;;1.98;78.65;99851.84;4999676;28;20070;-88
2024/01/16 02:27:57;;;;;;;16.58;7.70;;;2.00;99.90;;;2.01;78.63;99848.91;4998788;28;20054;-88
2024/01/16 02:30:25;;;;;;;13.82;7.47;;;2.00;99.90;;;1.84;78.84;99846.50;4999707;28;20047;-88
2024/01/16 02:32:55;;;;;;;15.75;7.82;;;1.90;99.90;;;1.79;79.30;99847.00;4986824;28;20043;-88
2024/01/16 02:35:22;;;;;;;13.93;6.90;;;1.90;99.90;;;1.94;79.66;99847.91;4981052;28;20046;-88
2024/01/16 02:37:52;;;;;;;16.95;8.07;;;2.10;99.90;;;1.88;79.00;99848.59;4983985;28;20062;-88
2024/01/16 02:40:20;;;;;;;14.85;9.23;;;2.00;99.90;;;1.93;79.70;99848.09;4964034;28;20055;-87
2024/01/16 02:42:49;;;;;;;17.52;8.38;;;1.90;99.90;;;2.01;79.67;99846.25;4963122;28;20499;-88
2024/01/16 02:45:18;;;;;;;16.20;8.43;;;2.00;99.90;;;2.08;79.40;99846.38;4980264;28;20102;-88
2024/01/16 02:47:46;;;;;;;16.95;9.15;;;2.00;99.90;;;2.13;79.04;99846.69;4980153;28;20049;-87
2024/01/16 02:50:16;;;;;;;17.85;10.52;;;2.10;99.90;;;2.03;79.09;99841.63;4979321;28;20039;-87
2024/01/16 02:52:45;;;;;;;17.88;11.07;;;2.00;99.90;;;2.07;79.43;99839.50;4978113;28;20042;-88
2024/01/16 02:55:13;;;;;;;21.80;11.52;;;2.10;99.90;;;2.08;79.46;99841.13;4980127;28;20458;-88
2024/01/16 02:57:40;;;;;;;19.95;11.90;;;2.00;99.90;;;2.09;79.23;99840.13;4980192;28;20065;-87
2024/01/16 03:00:11;;;;;;;22.95;12.95;;;2.10;99.90;;;2.11;79.43;99842.59;4967504;28;20138;-87
2024/01/16 03:02:39;;;;;;;23.42;13.60;;;2.10;99.90;;;2.16;79.24;99843.72;4958534;29;20054;-88
2024/01/16 03:05:09;;;;;;;24.95;14.32;;;2.10;99.90;;;2.21;79.42;99828.25;4942929;29;20043;-87
2024/01/16 03:07:36;;;;;;;24.25;15.95;;;2.10;99.90;;;2.23;79.17;99825.44;4971753;28;20047;-88
2024/01/16 03:10:04;;;;;;;26.08;16.67;;;2.20;99.90;;;2.27;79.26;99829.34;4975418;28;20129;-87
2024/01/16 03:12:32;;;;;;;32.85;17.90;;;2.20;99.90;;;2.24;78.83;99827.06;4959501;28;20403;-87
2024/01/16 03:14:59;;;;;;;31.30;18.17;;;2.20;99.90;;;2.25;79.14;99829.53;4978974;28;20066;-87
2024/01/16 03:17:31;;;;;;;32.55;19.35;;;2.20;99.90;;;2.24;78.80;99827.88;4966330;28;20506;-87
2024/01/16 03:19:59;;;;;;;35.10;19.55;;;2.20;99.90;;;2.26;79.09;99822.47;4999703;28;20049;-87
2024/01/16 03:22:26;;;;;;;33.10;18.98;;;2.20;99.90;;;2.28;79.19;99823.09;4979464;28;20047;-87
2024/01/16 03:24:57;;;;;;;33.67;19.73;;;2.20;99.90;;;2.24;79.24;99819.16;4962638;28;20455;-88
2024/01/16 03:27:24;;;;;;;33.38;21.42;;;2.20;99.90;;;2.28;79.24;99820.47;4980685;28;20054;-88
2024/01/16 03:29:56;;;;;;;34.67;21.58;;;2.20;99.90;;;2.27;79.17;99822.28;4980589;28;20403;-88
2024/01/16 03:32:23;;;;;;;35.65;20.70;;;2.20;99.90;;;2.24;79.03;99827.06;4979650;28;20051;-87
2024/01/16 03:34:52;;;;;;;35.63;20.73;;;2.20;99.90;;;2.28;78.66;99825.72;4979152;28;20403;-87
2024/01/16 03:37:19;;;;;;;34.70;20.33;;;2.20;99.90;;;2.24;78.98;99819.16;4980120;28;20105;-88
2024/01/16 03:39:51;;;;;;;33.78;20.60;;;2.20;99.90;;;2.22;79.18;99829.88;4977815;28;20441;-88
2024/01/16 03:42:18;;;;;;;32.67;19.98;;;2.20;99.90;;;2.26;79.13;99830.34;4979018;28;20089;-87
2024/01/16 03:44:46;;;;;;;33.95;19.35;;;2.20;99.90;;;2.26;78.59;99831.19;4977998;28;20510;-87
2024/01/16 03:47:13;;;;;;;30.10;18.30;;;2.20;99.90;;;2.30;78.54;99831.66;4978501;28;20077;-88
2024/01/16 03:49:41;;;;;;;28.58;18.15;;;2.20;99.90;;;2.31;79.00;99828.03;4979489;28;20074;-88
2024/01/16 03:52:13;;;;;;;28.58;17.88;;;2.20;99.90;;;2.27;78.57;99837.25;4962788;28;20074;-88
2024/01/16 03:54:40;;;;;;;34.85;19.45;;;2.20;99.90;;;2.19;78.72;99840.72;4980068;28;20054;-88
2024/01/16 03:57:14;;;;;;;31.35;19.15;;;2.20;99.90;;;2.17;78.83;99839.28;4979622;28;20074;-88
2024/01/16 03:59:44;;;;;;;33.30;19.20;;;2.20;99.90;;;2.18;79.16;99848.81;4978267;28;20054;-86
2024/01/16 04:02:14;;;;;;;34.78;19.10;;;2.20;99.90;;;2.24;79.45;99848.94;4962119;28;20063;-86
2024/01/16 04:04:41;;;;;;;30.55;19.08;;;2.20;99.90;;;2.29;79.25;99841.38;4979891;28;20043;-86
2024/01/16 04:07:13;;;;;;;31.90;20.08;;;2.20;99.90;;;2.30;78.85;99844.81;4983727;28;20058;-86
2024/01/16 04:09:44;;;;;;;32.03;19.50;;;2.30;99.90;;;2.27;79.40;99839.88;4997961;28;20109;-86
2024/01/16 04:12:12;;;;;;;37.28;19.50;;;2.20;99.90;;;2.29;79.05;99841.38;4984366;28;20105;-86
2024/01/16 04:14:42;;;;;;;30.88;17.45;;;2.20;99.90;;;2.15;79.02;99849.97;4979755;28;20043;-86
2024/01/16 04:17:12;;;;;;;30.55;17.98;;;2.20;99.90;;;2.18;79.29;99846.19;4979184;28;20063;-86
2024/01/16 04:19:39;;;;;;;29.95;17.08;;;2.10;99.90;;;2.20;79.21;99841.56;4980506;28;20494;-86
2024/01/16 04:22:10;;;;;;;28.35;17.50;;;2.10;99.90;;;2.15;79.14;99834.19;4979234;28;20514;-86
2024/01/16 04:24:39;;;;;;;28.17;16.90;;;2.20;99.90;;;2.20;79.44;99838.94;4959335;28;20070;-86
2024/01/16 04:27:07;;;;;;;32.33;16.92;;;2.20;99.90;;;2.24;78.99;99829.69;4968155;28;20051;-86
2024/01/16 04:29:37;;;;;;;27.02;16.27;;;2.20;99.90;;;2.26;79.23;99835.63;4980138;28;20047;-86
2024/01/16 04:32:05;;;;;;;26.02;15.73;;;2.20;99.90;;;2.27;78.79;99818.84;4978692;28;20047;-86
2024/01/16 04:34:34;;;;;;;27.38;15.02;;;2.20;99.90;;;2.27;78.99;99816.19;4979596;28;20038;-85
2024/01/16 04:37:01;;;;;;;29.58;15.70;;;2.20;99.90;;;2.13;78.58;99827.47;4993484;28;20525;-86
2024/01/16 04:39:30;;;;;;;26.08;13.93;;;2.20;99.90;;;2.12;79.05;99820.56;4979663;28;20042;-86
2024/01/16 04:42:00;;;;;;;24.50;14.15;;;2.10;99.90;;;2.12;78.99;99828.47;4978556;28;20574;-86
2024/01/16 04:44:27;;;;;;;28.40;13.48;;;2.10;99.90;;;2.12;79.35;99833.72;4965036;28;20049;-86
2024/01/16 04:46:55;;;;;;;22.73;13.27;;;2.10;99.90;;;2.14;79.29;99832.53;4916860;28;20054;-86
2024/01/16 04:49:22;;;;;;;24.38;13.05;;;2.10;99.90;;;2.15;79.37;99820.19;4997257;28;20570;-86
2024/01/16 04:51:50;;;;;;;20.40;11.75;;;2.10;99.90;;;2.19;78.99;99829.41;4997955;28;20046;-86
2024/01/16 04:54:17;;;;;;;23.92;12.52;;;2.20;99.90;;;2.20;79.30;99825.78;4999900;28;20071;-86
2024/01/16 04:56:47;;;;;;;21.85;11.98;;;2.20;99.90;;;2.13;78.74;99830.91;4995866;28;20046;-86
2024/01/16 04:59:16;;;;;;;21.60;11.75;;;2.20;99.90;;;2.12;79.04;99823.19;4961677;28;20082;-86
2024/01/16 05:01:43;;;;;;;22.08;10.85;;;2.10;99.90;;;2.05;78.88;99828.34;4958017;29;20071;-86
2024/01/16 05:04:10;;;;;;;19.73;10.68;;;2.10;99.90;;;1.96;79.04;99830.19;4959234;29;20044;-86
2024/01/16 05:06:40;;;;;;;16.60;9.73;;;2.10;99.90;;;2.03;79.53;99831.13;4959105;29;20054;-86
2024/01/16 05:09:09;;;;;;;17.13;9.60;;;2.00;99.90;;;2.11;79.27;99811.03;4947137;28;20066;-86
2024/01/16 05:11:42;;;;;;;20.02;9.23;;;2.10;99.90;;;2.08;79.15;99816.63;4981545;28;20454;-87
2024/01/16 05:14:10;;;;;;;19.17;9.20;;;2.10;99.90;;;2.13;79.51;99815.13;4983499;28;20114;-86
2024/01/16 05:16:39;;;;;;;13.43;8.13;;;2.10;99.90;;;2.10;78.93;99812.88;4982925;28;20536;-85
2024/01/16 05:19:09;;;;;;;14.20;8.35;;;2.10;99.90;;;2.09;79.15;99816.47;4965931;28;20054;-86
2024/01/16 05:21:41;;;;;;;14.40;7.82;;;2.10;99.90;;;2.11;79.31;99811.03;4986542;28;20070;-88
2024/01/16 05:24:10;;;;;;;18.23;7.95;;;2.10;99.90;;;2.13;79.20;99816.94;5005680;28;20046;-84
2024/01/16 05:26:37;;;;;;;16.52;8.10;;;2.10;99.90;;;2.05;79.09;99808.13;4995053;28;20047;-84
2024/01/16 05:29:08;;;;;;;16.48;8.00;;;2.10;99.90;;;2.00;79.21;99817.50;4966203;28;20118;-84
2024/01/16 05:31:43;;;;;;;13.18;7.78;;;2.00;99.90;;;2.11;79.49;99818.94;4984333;28;20051;-86
2024/01/16 05:34:11;;;;;;;13.48;7.78;;;2.10;99.90;;;2.07;78.80;99815.81;4994200;28;20116;-84
2024/01/16 05:36:39;;;;;;;16.58;8.05;;;2.10;99.90;;;2.05;78.99;99821.25;4996635;28;20062;-84
2024/01/16 05:39:07;;;;;;;14.20;7.63;;;2.10;99.90;;;2.06;79.29;99808.94;4981990;28;20055;-84
2024/01/16 05:41:36;;;;;;;17.23;8.73;;;2.00;99.90;;;2.13;79.00;99803.78;4983025;28;20043;-84
2024/01/16 05:44:04;;;;;;;13.88;7.80;;;2.10;99.90;;;2.11;78.56;99809.22;4985129;28;20034;-84
2024/01/16 05:46:33;;;;;;;15.57;8.45;;;2.10;99.90;;;2.04;78.76;99801.19;5001491;28;20046;-84
2024/01/16 05:49:04;;;;;;;16.23;8.82;;;2.00;99.90;;;1.92;78.63;99802.59;4970570;28;20066;-85
2024/01/16 05:51:32;;;;;;;16.05;9.07;;;2.00;99.90;;;1.86;79.21;99802.47;5004045;28;20053;-85
2024/01/16 05:54:00;;;;;;;19.08;9.38;;;1.90;99.90;;;1.97;79.44;99794.19;4997326;28;20046;-86
2024/01/16 05:56:28;;;;;;;22.02;11.38;;;2.00;99.90;;;2.06;79.03;99788.72;4983344;28;20073;-84
2024/01/16 05:59:04;;;;;;;23.67;13.00;;;2.00;99.90;;;1.96;78.46;99787.28;4985900;28;20070;-84
2024/01/16 06:01:31;;;;;;;23.55;13.23;;;2.00;99.90;;;2.02;78.66;99794.47;4981702;28;20478;-87
2024/01/16 06:04:02;;;;;;;23.95;13.23;;;2.00;99.90;;;2.00;78.61;99786.78;4994898;28;20050;-86
2024/01/16 06:06:29;;;;;;;23.13;13.33;;;2.00;99.90;;;2.11;78.51;99795.25;4997629;28;20046;-86
2024/01/16 06:09:05;;;;;;;23.60;13.77;;;2.00;99.90;;;2.10;78.54;99781.31;4966144;28;20050;-84
2024/01/16 06:11:34;;;;;;;24.27;14.95;;;2.10;99.90;;;2.16;78.00;99785.03;4982875;28;20051;-85
2024/01/16 06:14:03;;;;;;;27.85;15.63;;;2.10;99.90;;;2.15;78.13;99786.84;5008797;28;20050;-85
2024/01/16 06:16:30;;;;;;;28.40;16.90;;;2.10;99.90;;;2.18;77.97;99785.69;5008615;28;20042;-85
2024/01/16 06:18:58;;;;;;;33.42;17.60;;;2.10;99.90;;;2.20;77.90;99787.16;5000025;28;20139;-86
2024/01/16 06:21:28;;;;;;;28.15;16.17;;;2.10;99.90;;;2.21;77.55;99786.16;5005380;28;20510;-86
2024/01/16 06:23:57;;;;;;;30.73;17.88;;;2.10;99.90;;;2.18;77.61;99790.94;4983828;28;20074;-87
2024/01/16 06:26:24;;;;;;;29.45;17.50;;;2.10;99.90;;;2.15;77.77;99791.28;4989564;28;20042;-86
2024/01/16 06:28:52;;;;;;;29.42;18.35;;;2.10;99.90;;;2.15;77.43;99791.28;4987772;28;20050;-86
2024/01/16 06:31:23;;;;;;;35.17;18.95;;;2.00;99.90;;;2.13;77.87;99791.47;5005528;28;20034;-86
2024/01/16 06:33:51;;;;;;;35.20;19.23;;;2.00;99.90;;;2.08;77.87;99793.78;4986069;28;20113;-84
2024/01/16 06:36:18;;;;;;;28.58;18.45;;;2.00;99.90;;;2.12;78.02;99789.81;4998465;28;20050;-87
2024/01/16 06:38:48;;;;;;;34.08;18.77;;;2.00;99.90;;;2.16;77.86;99785.84;4983297;28;20058;-88
2024/01/16 06:41:15;;;;;;;35.42;18.25;;;2.10;99.90;;;2.13;77.71;99793.28;4976969;28;20506;-87
2024/01/16 06:43:44;;;;;;;38.42;19.17;;;2.00;99.90;;;2.03;77.64;99794.31;4961510;28;20133;-87
2024/01/16 06:46:11;;;;;;;36.55;18.77;;;2.00;99.90;;;2.07;78.40;99802.69;4981658;28;20050;-86
2024/01/16 06:48:41;;;;;;;32.88;16.88;;;2.00;99.90;;;2.05;77.97;99807.31;4987086;28;20066;-86
2024/01/16 06:51:10;;;;;;;34.22;17.90;;;2.00;99.90;;;2.05;77.70;99813.38;4943889;28;20046;-85
2024/01/16 06:53:38;;;;;;;33.53;16.58;;;2.00;99.90;;;2.00;77.99;99814.84;4978374;28;20043;-85
2024/01/16 06:56:09;;;;;;;26.23;13.85;;;2.00;99.90;;;1.87;77.29;99815.44;4975414;28;20042;-86
2024/01/16 06:58:37;;;;;;;23.73;14.18;;;1.90;99.90;;;1.80;77.29;99804.75;4990755;28;20426;-85
2024/01/16 07:01:05;;;;;;;32.55;13.93;;;1.90;99.90;;;1.82;77.54;99806.41;4979950;28;20050;-85
2024/01/16 07:03:33;;;;;;;25.48;12.68;;;1.80;99.90;;;1.92;77.65;99810.47;4991325;28;20498;-85
2024/01/16 07:06:00;;;;;;;22.30;11.80;;;1.90;99.90;;;1.92;77.05;99807.84;4975658;28;20055;-85
2024/01/16 07:08:28;;;;;;;27.70;12.63;;;1.90;99.90;;;1.80;77.29;99822.34;4987921;28;20050;-85
2024/01/16 07:10:56;;;;;;;27.30;11.75;;;1.80;99.90;;;1.88;77.60;99817.06;4979988;28;20505;-85
2024/01/16 07:13:25;;;;;;;22.08;11.40;;;1.80;99.90;;;1.94;76.59;99821.63;4996339;28;20057;-84
2024/01/16 07:15:54;;;;;;;28.55;9.95;;;1.90;99.90;;;1.98;76.81;99822.94;4995165;28;20093;-84
2024/01/16 07:18:22;;;;;;;16.40;8.90;;;1.90;99.90;;;1.97;75.99;99833.63;4949742;29;20035;-86
2024/01/16 07:20:49;;;;;;;21.60;8.82;;;1.90;99.90;;;1.89;75.95;99836.28;4974183;28;20062;-86
2024/01/16 07:23:17;;;;;;;21.77;8.10;;;1.80;99.90;;;1.84;75.90;99828.91;4989947;28;20530;-86
2024/01/16 07:25:45;;;;;;;20.52;7.85;;;1.80;99.90;;;1.83;76.23;99834.34;4982610;28;20050;-86
2024/01/16 07:28:14;;;;;;;21.70;7.22;;;1.70;99.90;;;1.68;76.25;99834.22;4994861;28;20042;-86
2024/01/16 07:30:43;;;;;;;18.67;7.72;;;1.70;99.90;;;1.64;75.96;99835.56;4987405;28;20050;-86
2024/01/16 07:33:11;;;;;;;17.27;7.65;;;1.60;99.90;;;1.71;76.57;99847.03;5003140;28;20089;-86
2024/01/16 07:35:40;;;;;;;18.92;8.02;;;1.60;99.90;;;1.80;76.25;99843.38;4992204;28;20047;-86
2024/01/16 07:38:09;;;;;;;15.43;7.25;;;1.80;99.90;;;1.87;76.22;99846.97;4983325;28;20082;-86
2024/01/16 07:40:36;;;;;;;17.42;8.23;;;1.80;99.90;;;1.88;76.17;99842.53;4993027;28;20039;-86
2024/01/16 07:43:04;;;;;;;16.23;7.47;;;1.80;99.90;;;1.87;75.74;99852.22;4985678;28;20088;-86
2024/01/16 07:45:31;;;;;;;21.73;7.55;;;1.80;99.90;;;1.78;75.84;99848.81;4985683;28;20047;-86
2024/01/16 07:48:01;;;;;;;17.95;7.07;;;1.70;99.90;;;1.86;76.12;99860.31;4984935;28;20525;-86
2024/01/16 07:50:28;;;;;;;17.60;8.30;;;1.80;99.90;;;1.89;75.76;99852.88;4999036;28;20501;-86
2024/01/16 07:52:56;;;;;;;15.55;7.15;;;1.80;99.90;;;1.91;75.84;99858.78;5004796;28;20049;-86
2024/01/16 07:55:24;;;;;;;22.10;7.82;;;1.80;99.90;;;1.82;75.02;99854.56;5003942;28;20043;-86
2024/01/16 07:57:51;;;;;;;18.23;7.45;;;1.80;99.90;;;1.70;75.21;99858.53;4987274;28;20117;-86
2024/01/16 08:00:20;;;;;;;23.75;6.75;;;1.70;99.90;;;1.72;75.51;99860.00;4984279;28;20067;-87
2024/01/16 08:02:47;;;;;;;15.70;6.22;;;1.70;99.90;;;1.79;75.82;99862.78;4993563;28;20069;-85
2024/01/16 08:05:17;;;;;;;17.73;6.70;;;1.70;99.90;;;1.82;75.49;99854.56;4976925;28;20065;-86
2024/01/16 08:07:45;;;;;;;16.52;6.32;;;1.80;99.90;;;1.78;75.21;99858.50;5009640;28;20038;-85
2024/01/16 08:10:12;;;;;;;23.73;6.78;;;1.80;99.90;;;1.86;75.26;99870.81;4995011;28;20051;-87
2024/01/16 08:12:40;;;;;;;16.42;5.50;;;1.80;99.90;;;1.89;75.06;99870.47;4980477;28;20050;-85
2024/01/16 08:15:09;;;;;;;19.10;5.70;;;1.80;99.90;;;1.76;74.14;99860.50;5003672;28;20466;-85
2024/01/16 08:17:39;;;;;;;11.98;4.80;;;1.70;99.90;;;1.78;74.79;99863.75;4987980;28;20105;-85
2024/01/16 08:20:09;;;;;;;15.40;5.00;;;1.70;99.90;;;1.87;74.82;99857.50;4986527;28;20034;-86
2024/01/16 08:22:38;;;;;;;12.77;5.10;;;1.80;99.90;;;1.79;73.91;99852.25;4961985;28;20049;-88
2024/01/16 08:25:08;;;;;;;12.07;4.72;;;1.80;99.90;;;1.62;73.42;99851.50;5013924;28;20061;-88
2024/01/16 08:27:37;;;;;;;18.85;5.22;;;1.70;99.90;;;1.66;73.62;99854.59;5014963;28;20035;-86
2024/01/16 08:30:07;;;;;;;12.80;4.50;;;1.70;99.90;;;1.67;73.71;99861.50;5015497;28;20122;-86
2024/01/16 08:32:49;;;;;;;20.50;4.73;;;1.70;99.90;;;1.65;73.32;99856.41;5015647;28;20026;-87
2024/01/16 08:35:18;;;;;;;14.85;4.85;;;1.70;99.90;;;1.69;73.62;99867.41;4910557;29;20116;-87
2024/01/16 08:37:47;;;;;;;14.05;4.55;;;1.70;99.90;;;1.74;73.24;99863.28;4911144;29;20048;-87
2024/01/16 08:40:15;;;;;;;16.40;4.97;;;1.70;99.90;;;1.69;73.05;99859.50;4919856;29;20124;-87
2024/01/16 08:42:43;;;;;;;13.43;4.15;;;1.70;99.90;;;1.58;73.05;99868.59;4929580;29;20108;-87
2024/01/16 08:45:11;;;;;;;17.15;4.32;;;1.60;99.90;;;1.65;73.28;99871.34;4902094;29;20052;-87
2024/01/16 08:47:40;;;;;;;17.05;4.05;;;1.70;99.90;;;1.58;73.34;99873.03;4921555;29;20059;-87
2024/01/16 08:50:10;;;;;;;19.02;4.35;;;1.70;99.90;;;1.58;72.34;99875.66;4887045;29;20115;-87
2024/01/16 08:52:38;;;;;;;14.50;4.28;;;1.70;99.90;;;1.54;72.66;99872.53;4901412;29;20509;-86
2024/01/16 08:55:09;;;;;;;17.02;4.22;;;1.70;99.90;;;1.54;72.58;99878.59;4901912;29;20048;-86
2024/01/16 08:57:38;;;;;;;11.95;4.40;;;1.60;99.90;;;1.59;72.57;99879.91;4917607;29;20053;-87
2024/01/16 09:00:08;;;;;;;16.27;4.38;;;1.70;99.90;;;1.60;72.67;99876.28;4903597;29;20065;-86
2024/01/16 09:02:36;;;;;;;13.18;4.20;;;1.60;99.90;;;1.48;72.39;99879.28;4902605;29;20041;-87
2024/01/16 09:05:04;;;;;;;15.23;4.28;;;1.60;99.90;;;1.52;72.60;99875.34;4921267;29;20045;-87
2024/01/16 09:07:32;;;;;;;17.80;4.15;;;1.70;99.90;;;1.64;72.79;99867.91;4936900;29;20143;-86
2024/01/16 09:10:03;;;;;;;18.52;4.00;;;1.70;99.90;;;1.78;73.00;99887.41;4922535;29;20056;-86
2024/01/16 09:12:32;;;;;;;14.40;3.70;;;1.80;99.90;;;1.82;72.51;99865.06;4954053;28;20055;-86
2024/01/16 09:15:01;;;;;;;18.45;4.05;;;1.80;99.90;;;1.84;72.04;99883.28;4993717;28;20087;-87
2024/01/16 09:17:29;;;;;;;13.23;3.90;;;1.90;99.90;;;1.85;72.26;99882.28;4993670;28;20050;-88
2024/01/16 09:19:58;;;;;;;13.70;4.00;;;1.90;99.90;;;1.86;71.76;99878.69;4994189;28;20063;-86
2024/01/16 09:22:31;;;;;;;17.92;4.18;;;1.90;99.90;;;1.86;71.69;99876.06;4996146;28;20122;-84
2024/01/16 09:25:02;;;;;;;19.13;4.25;;;1.90;99.90;;;1.82;71.36;99866.88;5010507;28;20060;-86
2024/01/16 09:27:32;;;;;;;12.80;4.97;;;1.90;99.90;;;1.85;71.19;99864.72;4992226;28;20058;-86
2024/01/16 09:30:01;;;;;;;14.25;3.85;;;1.90;99.90;;;1.86;70.52;99860.31;4991864;28;20525;-86
2024/01/16 09:32:30;;;;;;;12.57;4.05;;;1.90;99.90;;;1.90;71.19;99862.38;4990032;28;20047;-86
2024/01/16 09:35:06;;;;;;;16.85;4.57;;;1.90;99.90;;;1.88;70.66;99874.91;4993497;28;20047;-86
2024/01/16 09:37:37;;;;;;;13.90;3.80;;;1.90;99.90;;;1.89;70.93;99862.56;4982887;28;20048;-86
2024/01/16 09:40:06;;;;;;;13.60;4.00;;;1.90;99.90;;;1.94;71.25;99863.69;4972121;28;20088;-86
2024/01/16 09:42:36;;;;;;;14.43;4.32;;;2.00;99.90;;;1.92;70.47;99867.50;4940230;29;20106;-86
2024/01/16 09:45:05;;;;;;;20.15;4.13;;;2.00;99.90;;;1.89;70.87;99865.19;4958165;29;20096;-86
2024/01/16 09:47:33;;;;;;;16.85;4.50;;;2.00;99.90;;;1.91;70.62;99864.06;4974366;29;20115;-87
2024/01/16 09:50:06;;;;;;;16.13;4.10;;;2.00;99.90;;;1.79;70.03;99868.84;4975837;28;20038;-87
2024/01/16 09:52:34;;;;;;;10.45;4.03;;;1.90;99.90;;;1.93;71.06;99869.94;4999308;28;20050;-86
2024/01/16 09:55:02;;;;;;;18.90;4.45;;;2.00;99.90;;;2.03;71.10;99867.94;5013319;28;20617;-86
2024/01/16 09:57:31;;;;;;;13.88;4.30;;;2.00;99.90;;;1.91;70.06;99861.44;5013608;28;20050;-87
2024/01/16 10:00:05;;;;;;;17.60;4.47;;;2.00;99.90;;;1.95;70.46;99854.00;5016261;28;20034;-86
2024/01/16 10:02:36;;;;;;;15.32;4.28;;;2.00;99.90;;;1.91;70.03;99871.13;5016345;28;20069;-86
2024/01/16 10:05:05;;;;;;;12.43;4.25;;;2.00;99.90;;;1.82;70.10;99865.06;5010422;28;20035;-86
2024/01/16 10:07:34;;;;;;;10.27;4.53;;;2.00;99.90;;;1.88;69.98;99864.38;4994863;28;20054;-87
2024/01/16 10:10:02;;;;;;;18.60;4.45;;;2.00;99.90;;;1.91;69.81;99861.44;4996388;28;20106;-86
2024/01/16 10:12:29;;;;;;;13.02;4.95;;;2.00;99.90;;;1.93;69.51;99859.44;4995377;28;20129;-86
2024/01/16 10:14:59;;;;;;;16.30;5.03;;;2.00;99.90;;;1.95;69.67;99854.84;4986638;28;20082;-84
2024/01/16 10:17:38;;;;;;;16.83;5.22;;;2.00;99.90;;;1.91;69.04;99858.78;4981939;28;20054;-85
2024/01/16 10:20:07;;;;;;;19.92;4.72;;;2.00;99.90;;;1.86;69.21;99845.34;4982428;28;20047;-84
2024/01/16 10:22:35;;;;;;;14.30;3.85;;;2.00;99.90;;;1.85;69.25;99854.19;4986709;28;20046;-84
2024/01/16 10:25:07;;;;;;;17.58;6.53;;;2.00;99.90;;;2.00;70.13;99847.25;5000536;28;20077;-84
2024/01/16 10:27:36;;;;;;;26.98;8.15;;;2.10;99.90;;;2.14;70.34;99850.94;4970842;28;20078;-85
2024/01/16 10:30:10;;;;;;;18.45;5.15;;;2.20;99.90;;;1.88;68.89;99853.88;4980206;28;20050;-84